sensor_id;sensor_type;location;lat;lon;timestamp;temperature;humidity
4594;DHT22;2309;51.674;8.368;2023-02-28T06:31:10;-3.80;99.90
4594;DHT22;2309;51.674;8.368;2023-02-28T06:33:40;-3.70;99.90
4594;DHT22;2309;51.674;8.368;2023-02-28T06:36:17;-3.60;1.00
4594;DHT22;2309;51.674;8.368;2023-02-28T06:38:51;-3.50;99.90
4594;DHT22;2309;51.674;8.368;2023-02-28T06:41:10;-3.50;1.00
4594;DHT22;2309;51.674;8.368;2023-02-28T06:43:42;-3.50;1.00
4594;DHT22;2309;51.674;8.368;2023-02-28T06:46:12;-3.00;99.90
4594;DHT22;2309;51.674;8.368;2023-02-28T06:48:36;-3.40;99.90
4594;DHT22;2309;51.674;8.368;2023-02-28T06:51:04;-3.50;1.00
4594;DHT22;2309;51.674;8.368;2023-02-28T06:53:35;-3.30;99.90
4594;DHT22;2309;51.674;8.368;2023-02-28T06:56:04;-3.40;1.00
4594;DHT22;2309;51.674;8.368;2023-02-28T06:58:32;-3.30;43.20
4594;DHT22;2309;51.674;8.368;2023-02-28T07:00:59;-3.40;1.00
4594;DHT22;2309;51.674;8.368;2023-02-28T07:03:25;-3.30;99.90
4594;DHT22;2309;51.674;8.368;2023-02-28T07:06:24;-3.20;1.00
4594;DHT22;2309;51.674;8.368;2023-02-28T07:08:24;-3.10;1.00
4594;DHT22;2309;51.674;8.368;2023-02-28T07:10:54;-3.00;99.90
4594;DHT22;2309;51.674;8.368;2023-02-28T07:13:21;-2.90;99.90
4594;DHT22;2309;51.674;8.368;2023-02-28T07:18:19;-2.70;93.00
4594;DHT22;2309;51.674;8.368;2023-02-28T07:20:49;-2.50;72.70
4594;DHT22;2309;51.674;8.368;2023-02-28T07:23:16;-2.40;1.00
4594;DHT22;2309;51.674;8.368;2023-02-28T07:25:43;-2.40;1.00
4594;DHT22;2309;51.674;8.368;2023-02-28T07:28:11;-2.40;99.90
4594;DHT22;2309;51.674;8.368;2023-02-28T07:30:40;-2.30;99.90
4594;DHT22;2309;51.674;8.368;2023-02-28T07:33:07;-2.10;49.60
4594;DHT22;2309;51.674;8.368;2023-02-28T07:35:34;-2.00;1.00
4594;DHT22;2309;51.674;8.368;2023-02-28T07:38:02;-1.90;1.00
4594;DHT22;2309;51.674;8.368;2023-02-28T07:40:31;-1.80;1.00
4594;DHT22;2309;51.674;8.368;2023-02-28T07:45:25;-1.70;99.90
4594;DHT22;2309;51.674;8.368;2023-02-28T07:47:57;-1.60;99.90
4594;DHT22;2309;51.674;8.368;2023-02-28T07:50:20;-1.40;99.90
4594;DHT22;2309;51.674;8.368;2023-02-28T07:52:53;-1.40;99.90
4594;DHT22;2309;51.674;8.368;2023-02-28T07:55:18;-1.30;99.90
4594;DHT22;2309;51.674;8.368;2023-02-28T07:57:45;-1.20;99.90
4594;DHT22;2309;51.674;8.368;2023-02-28T08:00:12;-1.00;99.90
4594;DHT22;2309;51.674;8.368;2023-02-28T08:02:39;-0.90;99.90
4594;DHT22;2309;51.674;8.368;2023-02-28T08:05:06;-0.80;99.90
4594;DHT22;2309;51.674;8.368;2023-02-28T08:07:35;-0.60;99.90
4594;DHT22;2309;51.674;8.368;2023-02-28T08:10:03;-0.50;99.90
4594;DHT22;2309;51.674;8.368;2023-02-28T08:12:31;-0.40;99.90
4594;DHT22;2309;51.674;8.368;2023-02-28T08:14:58;-0.30;99.90
4594;DHT22;2309;51.674;8.368;2023-02-28T08:17:30;-0.10;99.90
4594;DHT22;2309;51.674;8.368;2023-02-28T08:19:55;0.10;99.90
4594;DHT22;2309;51.674;8.368;2023-02-28T08:22:26;0.10;1.00
4594;DHT22;2309;51.674;8.368;2023-02-28T08:24:54;0.20;91.10
4594;DHT22;2309;51.674;8.368;2023-02-28T08:27:22;0.10;90.80
4594;DHT22;2309;51.674;8.368;2023-02-28T08:29:49;0.00;90.30
4594;DHT22;2309;51.674;8.368;2023-02-28T08:32:42;-0.30;90.10
4594;DHT22;2309;51.674;8.368;2023-02-28T08:34:49;0.00;90.90
4594;DHT22;2309;51.674;8.368;2023-02-28T08:39:53;0.20;91.30
4594;DHT22;2309;51.674;8.368;2023-02-28T08:42:19;0.50;90.30
4594;DHT22;2309;51.674;8.368;2023-02-28T08:47:25;1.10;85.00
4594;DHT22;2309;51.674;8.368;2023-02-28T08:49:54;1.30;83.20
4594;DHT22;2309;51.674;8.368;2023-02-28T08:52:24;1.60;80.90
4594;DHT22;2309;51.674;8.368;2023-02-28T08:54:51;1.70;80.40
4594;DHT22;2309;51.674;8.368;2023-02-28T08:57:20;1.80;75.70
4594;DHT22;2309;51.674;8.368;2023-02-28T08:59:47;1.90;72.90
4594;DHT22;2309;51.674;8.368;2023-02-28T09:02:14;2.10;71.70
4594;DHT22;2309;51.674;8.368;2023-02-28T09:04:41;2.30;70.20
4594;DHT22;2309;51.674;8.368;2023-02-28T09:07:12;2.50;67.60
4594;DHT22;2309;51.674;8.368;2023-02-28T09:09:43;2.80;66.20
4594;DHT22;2309;51.674;8.368;2023-02-28T09:12:14;3.10;64.00
4594;DHT22;2309;51.674;8.368;2023-02-28T09:14:41;3.30;64.60
4594;DHT22;2309;51.674;8.368;2023-02-28T09:17:09;3.70;62.20
4594;DHT22;2309;51.674;8.368;2023-02-28T09:22:08;3.60;56.70
4594;DHT22;2309;51.674;8.368;2023-02-28T09:24:35;3.60;55.50
4594;DHT22;2309;51.674;8.368;2023-02-28T09:27:03;3.70;54.10
4594;DHT22;2309;51.674;8.368;2023-02-28T09:29:33;3.60;52.20
4594;DHT22;2309;51.674;8.368;2023-02-28T09:34:27;4.10;49.60
4594;DHT22;2309;51.674;8.368;2023-02-28T09:37:04;4.10;49.50
4594;DHT22;2309;51.674;8.368;2023-02-28T09:39:32;4.10;48.80
4594;DHT22;2309;51.674;8.368;2023-02-28T09:42:21;4.10;48.60
4594;DHT22;2309;51.674;8.368;2023-02-28T09:49:39;4.50;46.90
4594;DHT22;2309;51.674;8.368;2023-02-28T09:52:24;4.50;44.90
4594;DHT22;2309;51.674;8.368;2023-02-28T09:54:36;4.40;45.90
4594;DHT22;2309;51.674;8.368;2023-02-28T09:57:13;4.20;41.40
4594;DHT22;2309;51.674;8.368;2023-02-28T09:59:39;4.30;44.20
4594;DHT22;2309;51.674;8.368;2023-02-28T10:02:04;4.50;42.10
4594;DHT22;2309;51.674;8.368;2023-02-28T10:04:50;4.60;43.60
4594;DHT22;2309;51.674;8.368;2023-02-28T10:07:00;4.70;39.10
4594;DHT22;2309;51.674;8.368;2023-02-28T10:09:30;4.70;40.10
4594;DHT22;2309;51.674;8.368;2023-02-28T10:12:02;5.00;38.10
4594;DHT22;2309;51.674;8.368;2023-02-28T10:14:28;4.90;40.50
4594;DHT22;2309;51.674;8.368;2023-02-28T10:16:56;4.70;38.80
4594;DHT22;2309;51.674;8.368;2023-02-28T10:19:33;4.70;38.10
4594;DHT22;2309;51.674;8.368;2023-02-28T10:24:29;5.00;37.90
4594;DHT22;2309;51.674;8.368;2023-02-28T10:29:22;6.10;36.80
4594;DHT22;2309;51.674;8.368;2023-02-28T10:31:49;6.40;35.60
4594;DHT22;2309;51.674;8.368;2023-02-28T10:34:16;6.50;35.30
4594;DHT22;2309;51.674;8.368;2023-02-28T10:36:45;6.60;31.90
4594;DHT22;2309;51.674;8.368;2023-02-28T10:39:44;6.70;30.60
4594;DHT22;2309;51.674;8.368;2023-02-28T10:41:42;6.40;28.80
4594;DHT22;2309;51.674;8.368;2023-02-28T10:44:23;6.20;28.10
4594;DHT22;2309;51.674;8.368;2023-02-28T10:46:36;5.90;28.90
4594;DHT22;2309;51.674;8.368;2023-02-28T10:49:05;5.80;27.50
4594;DHT22;2309;51.674;8.368;2023-02-28T10:51:34;5.80;27.10
4594;DHT22;2309;51.674;8.368;2023-02-28T10:54:03;6.10;26.40
4594;DHT22;2309;51.674;8.368;2023-02-28T10:56:32;6.30;24.90
4594;DHT22;2309;51.674;8.368;2023-02-28T10:59:02;5.90;25.50
4594;DHT22;2309;51.674;8.368;2023-02-28T11:03:59;6.10;24.10
4594;DHT22;2309;51.674;8.368;2023-02-28T11:06:28;6.70;26.20
4594;DHT22;2309;51.674;8.368;2023-02-28T11:08:55;7.50;23.20
4594;DHT22;2309;51.674;8.368;2023-02-28T11:11:27;7.90;20.40
4594;DHT22;2309;51.674;8.368;2023-02-28T11:13:54;7.40;20.40
4594;DHT22;2309;51.674;8.368;2023-02-28T11:16:22;7.50;19.90
4594;DHT22;2309;51.674;8.368;2023-02-28T11:18:53;7.50;20.60
4594;DHT22;2309;51.674;8.368;2023-02-28T11:21:29;8.50;20.90
4594;DHT22;2309;51.674;8.368;2023-02-28T11:23:50;9.40;18.80
4594;DHT22;2309;51.674;8.368;2023-02-28T11:26:35;9.40;14.10
4594;DHT22;2309;51.674;8.368;2023-02-28T11:28:47;9.50;15.00
4594;DHT22;2309;51.674;8.368;2023-02-28T11:31:15;8.90;11.30
4594;DHT22;2309;51.674;8.368;2023-02-28T11:33:48;7.90;12.00
4594;DHT22;2309;51.674;8.368;2023-02-28T11:38:40;8.20;11.90
4594;DHT22;2309;51.674;8.368;2023-02-28T11:41:46;8.60;13.10
4594;DHT22;2309;51.674;8.368;2023-02-28T11:43:44;9.40;10.90
4594;DHT22;2309;51.674;8.368;2023-02-28T11:46:10;9.30;8.10
4594;DHT22;2309;51.674;8.368;2023-02-28T11:48:36;10.30;7.20
4594;DHT22;2309;51.674;8.368;2023-02-28T11:51:04;11.40;4.80
4594;DHT22;2309;51.674;8.368;2023-02-28T11:56:01;10.40;1.10
4594;DHT22;2309;51.674;8.368;2023-02-28T11:58:47;9.40;3.20
4594;DHT22;2309;51.674;8.368;2023-02-28T12:01:02;8.50;4.50
4594;DHT22;2309;51.674;8.368;2023-02-28T12:04:03;7.70;5.60
4594;DHT22;2309;51.674;8.368;2023-02-28T12:06:08;7.90;7.20
4594;DHT22;2309;51.674;8.368;2023-02-28T12:11:06;8.20;10.80
4594;DHT22;2309;51.674;8.368;2023-02-28T12:13:25;7.90;6.30
4594;DHT22;2309;51.674;8.368;2023-02-28T12:15:57;7.80;7.30
4594;DHT22;2309;51.674;8.368;2023-02-28T12:18:26;7.10;8.10
4594;DHT22;2309;51.674;8.368;2023-02-28T12:20:58;7.70;8.70
4594;DHT22;2309;51.674;8.368;2023-02-28T12:28:18;11.10;2.70
4594;DHT22;2309;51.674;8.368;2023-02-28T12:30:49;12.30;1.00
4594;DHT22;2309;51.674;8.368;2023-02-28T12:33:14;12.30;3.20
4594;DHT22;2309;51.674;8.368;2023-02-28T12:35:51;12.00;1.00
4594;DHT22;2309;51.674;8.368;2023-02-28T12:38:27;13.00;1.00
4594;DHT22;2309;51.674;8.368;2023-02-28T12:45:39;15.50;1.00
4594;DHT22;2309;51.674;8.368;2023-02-28T12:48:06;15.00;1.00
4594;DHT22;2309;51.674;8.368;2023-02-28T12:53:03;16.70;1.00
4594;DHT22;2309;51.674;8.368;2023-02-28T12:55:41;16.60;1.00
4594;DHT22;2309;51.674;8.368;2023-02-28T13:00:29;14.80;1.00
4594;DHT22;2309;51.674;8.368;2023-02-28T13:09:00;15.70;1.00
4594;DHT22;2309;51.674;8.368;2023-02-28T13:10:59;14.50;1.00
4594;DHT22;2309;51.674;8.368;2023-02-28T13:13:29;14.40;1.00
4594;DHT22;2309;51.674;8.368;2023-02-28T13:15:58;13.70;1.00
4594;DHT22;2309;51.674;8.368;2023-02-28T13:18:28;13.40;1.00
4594;DHT22;2309;51.674;8.368;2023-02-28T13:20:56;14.90;1.00
4594;DHT22;2309;51.674;8.368;2023-02-28T13:23:40;16.10;1.00
4594;DHT22;2309;51.674;8.368;2023-02-28T13:25:53;16.40;1.00
4594;DHT22;2309;51.674;8.368;2023-02-28T13:28:58;16.50;1.00
4594;DHT22;2309;51.674;8.368;2023-02-28T13:33:22;14.70;1.00
4594;DHT22;2309;51.674;8.368;2023-02-28T13:36:28;15.20;1.00
4594;DHT22;2309;51.674;8.368;2023-02-28T13:38:25;15.20;1.00
4594;DHT22;2309;51.674;8.368;2023-02-28T13:40:56;15.70;1.00
4594;DHT22;2309;51.674;8.368;2023-02-28T13:43:35;15.30;1.00
4594;DHT22;2309;51.674;8.368;2023-02-28T13:46:13;14.40;1.00
4594;DHT22;2309;51.674;8.368;2023-02-28T13:48:26;15.60;1.00
4594;DHT22;2309;51.674;8.368;2023-02-28T13:50:59;16.20;1.00
4594;DHT22;2309;51.674;8.368;2023-02-28T13:54:32;16.90;1.00
4594;DHT22;2309;51.674;8.368;2023-02-28T13:56:44;16.80;1.00
4594;DHT22;2309;51.674;8.368;2023-02-28T14:03:41;17.40;1.00
4594;DHT22;2309;51.674;8.368;2023-02-28T14:06:46;17.10;1.00
4594;DHT22;2309;51.674;8.368;2023-02-28T14:08:34;16.50;1.00
4594;DHT22;2309;51.674;8.368;2023-02-28T14:11:04;17.10;1.00
4594;DHT22;2309;51.674;8.368;2023-02-28T14:13:45;17.30;1.00
4594;DHT22;2309;51.674;8.368;2023-02-28T14:16:00;17.50;1.00
4594;DHT22;2309;51.674;8.368;2023-02-28T14:18:29;18.40;1.00
4594;DHT22;2309;51.674;8.368;2023-02-28T14:20:58;18.90;1.00
4594;DHT22;2309;51.674;8.368;2023-02-28T14:23:26;17.30;1.00
4594;DHT22;2309;51.674;8.368;2023-02-28T14:25:55;17.20;1.00
4594;DHT22;2309;51.674;8.368;2023-02-28T14:35:55;13.10;1.00
4594;DHT22;2309;51.674;8.368;2023-02-28T14:38:18;12.90;1.00
4594;DHT22;2309;51.674;8.368;2023-02-28T14:40:47;13.30;1.00
4594;DHT22;2309;51.674;8.368;2023-02-28T14:43:20;15.90;1.00
4594;DHT22;2309;51.674;8.368;2023-02-28T14:45:49;16.20;1.00
4594;DHT22;2309;51.674;8.368;2023-02-28T14:48:14;16.80;1.00
4594;DHT22;2309;51.674;8.368;2023-02-28T14:50:47;16.70;1.00
4594;DHT22;2309;51.674;8.368;2023-02-28T14:53:17;15.20;1.00
4594;DHT22;2309;51.674;8.368;2023-02-28T14:55:52;15.50;1.00
4594;DHT22;2309;51.674;8.368;2023-02-28T14:58:26;17.10;1.00
4594;DHT22;2309;51.674;8.368;2023-02-28T15:00:56;17.50;1.00
4594;DHT22;2309;51.674;8.368;2023-02-28T15:03:24;17.70;1.00
4594;DHT22;2309;51.674;8.368;2023-02-28T15:05:57;17.10;1.00
4594;DHT22;2309;51.674;8.368;2023-02-28T15:08:25;17.20;1.00
4594;DHT22;2309;51.674;8.368;2023-02-28T15:10:54;17.30;1.00
4594;DHT22;2309;51.674;8.368;2023-02-28T15:13:22;16.70;1.00
4594;DHT22;2309;51.674;8.368;2023-02-28T15:15:51;17.10;1.00
4594;DHT22;2309;51.674;8.368;2023-02-28T15:18:56;17.20;1.00
4594;DHT22;2309;51.674;8.368;2023-02-28T15:20:48;17.10;1.00
4594;DHT22;2309;51.674;8.368;2023-02-28T15:23:20;16.80;1.00
4594;DHT22;2309;51.674;8.368;2023-02-28T15:25:49;16.90;1.00
4594;DHT22;2309;51.674;8.368;2023-02-28T15:28:16;16.40;1.00
4594;DHT22;2309;51.674;8.368;2023-02-28T15:30:52;16.30;1.00
4594;DHT22;2309;51.674;8.368;2023-02-28T15:35:46;16.40;1.00
4594;DHT22;2309;51.674;8.368;2023-02-28T15:54:08;16.20;1.00
4594;DHT22;2309;51.674;8.368;2023-02-28T15:56:38;16.50;1.00
4594;DHT22;2309;51.674;8.368;2023-02-28T15:59:06;15.60;1.00
4594;DHT22;2309;51.674;8.368;2023-02-28T16:01:35;15.80;1.00
4594;DHT22;2309;51.674;8.368;2023-02-28T16:04:03;15.80;1.00
4594;DHT22;2309;51.674;8.368;2023-02-28T16:06:41;15.70;1.00
4594;DHT22;2309;51.674;8.368;2023-02-28T16:09:14;14.80;1.00
4594;DHT22;2309;51.674;8.368;2023-02-28T16:11:49;14.50;1.00
4594;DHT22;2309;51.674;8.368;2023-02-28T16:14:15;14.10;1.00
4594;DHT22;2309;51.674;8.368;2023-02-28T16:16:50;13.70;1.00
4594;DHT22;2309;51.674;8.368;2023-02-28T16:19:17;13.80;1.00
4594;DHT22;2309;51.674;8.368;2023-02-28T16:21:45;13.90;1.00
4594;DHT22;2309;51.674;8.368;2023-02-28T16:24:12;13.70;1.00
4594;DHT22;2309;51.674;8.368;2023-02-28T16:29:06;13.50;1.00
4594;DHT22;2309;51.674;8.368;2023-02-28T16:31:35;13.20;1.00
4594;DHT22;2309;51.674;8.368;2023-02-28T16:34:03;12.90;1.00
4594;DHT22;2309;51.674;8.368;2023-02-28T16:36:34;12.40;1.00
4594;DHT22;2309;51.674;8.368;2023-02-28T16:41:31;11.90;1.00
4594;DHT22;2309;51.674;8.368;2023-02-28T16:46:23;10.50;1.00
4594;DHT22;2309;51.674;8.368;2023-02-28T16:51:17;9.90;1.00
4594;DHT22;2309;51.674;8.368;2023-02-28T16:58:37;7.00;1.00
4594;DHT22;2309;51.674;8.368;2023-02-28T17:01:05;6.20;1.00
4594;DHT22;2309;51.674;8.368;2023-02-28T17:03:31;5.50;1.00
4594;DHT22;2309;51.674;8.368;2023-02-28T17:05:58;5.00;1.00
4594;DHT22;2309;51.674;8.368;2023-02-28T17:08:25;4.70;1.00
4594;DHT22;2309;51.674;8.368;2023-02-28T17:10:54;4.20;1.00
4594;DHT22;2309;51.674;8.368;2023-02-28T17:13:20;4.60;1.00
4594;DHT22;2309;51.674;8.368;2023-02-28T17:15:47;3.80;1.00
4594;DHT22;2309;51.674;8.368;2023-02-28T17:20:41;3.50;1.00
4594;DHT22;2309;51.674;8.368;2023-02-28T17:23:09;3.30;3.00
4594;DHT22;2309;51.674;8.368;2023-02-28T17:25:40;3.20;4.50
4594;DHT22;2309;51.674;8.368;2023-02-28T17:28:08;3.10;4.30
4594;DHT22;2309;51.674;8.368;2023-02-28T17:30:37;3.10;8.70
4594;DHT22;2309;51.674;8.368;2023-02-28T17:33:08;3.10;9.80
4594;DHT22;2309;51.674;8.368;2023-02-28T17:35:41;3.00;9.10
4594;DHT22;2309;51.674;8.368;2023-02-28T17:40:38;2.60;9.90
4594;DHT22;2309;51.674;8.368;2023-02-28T17:43:07;2.50;10.80
4594;DHT22;2309;51.674;8.368;2023-02-28T17:45:50;2.30;12.90
4594;DHT22;2309;51.674;8.368;2023-02-28T17:48:09;2.10;14.80
4594;DHT22;2309;51.674;8.368;2023-02-28T17:50:39;1.90;15.90
4594;DHT22;2309;51.674;8.368;2023-02-28T17:53:11;1.80;16.20
4594;DHT22;2309;51.674;8.368;2023-02-28T17:55:42;1.70;18.40
4594;DHT22;2309;51.674;8.368;2023-02-28T17:58:12;1.70;19.00
4594;DHT22;2309;51.674;8.368;2023-02-28T18:00:40;1.60;19.80
4594;DHT22;2309;51.674;8.368;2023-02-28T18:03:13;1.60;19.50
4594;DHT22;2309;51.674;8.368;2023-02-28T18:05:45;1.50;20.90
4594;DHT22;2309;51.674;8.368;2023-02-28T18:08:18;1.40;22.00
4594;DHT22;2309;51.674;8.368;2023-02-28T18:10:45;1.30;22.10
4594;DHT22;2309;51.674;8.368;2023-02-28T18:13:15;1.30;23.00
4594;DHT22;2309;51.674;8.368;2023-02-28T18:15:47;1.20;23.50
4594;DHT22;2309;51.674;8.368;2023-02-28T18:18:15;1.20;24.50
4594;DHT22;2309;51.674;8.368;2023-02-28T18:20:45;1.20;25.60
4594;DHT22;2309;51.674;8.368;2023-02-28T18:23:15;1.00;25.50
4594;DHT22;2309;51.674;8.368;2023-02-28T18:25:44;1.10;26.20
4594;DHT22;2309;51.674;8.368;2023-02-28T18:28:15;1.00;27.80
4594;DHT22;2309;51.674;8.368;2023-02-28T18:30:42;1.10;28.50
